sensor_id;sensor_type;location;lat;lon;timestamp;P1;durP1;ratioP1;P2;durP2;ratioP2
19329;SDS011;9799;48.214;16.388;2022-10-16T00:03:17;43.63;;;31.10;;
19329;SDS011;9799;48.214;16.388;2022-10-16T00:06:38;36.10;;;30.00;;
19329;SDS011;9799;48.214;16.388;2022-10-16T00:10:00;35.43;;;30.67;;
19329;SDS011;9799;48.214;16.388;2022-10-16T00:13:22;37.77;;;31.40;;
19329;SDS011;9799;48.214;16.388;2022-10-16T00:16:43;39.90;;;30.37;;
19329;SDS011;9799;48.214;16.388;2022-10-16T00:20:05;36.53;;;30.10;;
19329;SDS011;9799;48.214;16.388;2022-10-16T00:23:27;36.47;;;29.83;;
19329;SDS011;9799;48.214;16.388;2022-10-16T00:26:48;35.53;;;30.50;;
19329;SDS011;9799;48.214;16.388;2022-10-16T00:30:11;40.70;;;30.67;;
19329;SDS011;9799;48.214;16.388;2022-10-16T00:33:33;40.07;;;32.87;;
19329;SDS011;9799;48.214;16.388;2022-10-16T00:36:54;37.43;;;32.23;;
19329;SDS011;9799;48.214;16.388;2022-10-16T00:40:16;37.80;;;31.93;;
19329;SDS011;9799;48.214;16.388;2022-10-16T00:43:38;38.30;;;30.10;;
19329;SDS011;9799;48.214;16.388;2022-10-16T00:47:03;36.37;;;31.83;;
19329;SDS011;9799;48.214;16.388;2022-10-16T00:50:26;39.07;;;32.17;;
19329;SDS011;9799;48.214;16.388;2022-10-16T00:53:49;37.40;;;30.80;;
19329;SDS011;9799;48.214;16.388;2022-10-16T00:57:11;39.20;;;31.60;;
19329;SDS011;9799;48.214;16.388;2022-10-16T01:00:33;40.57;;;32.30;;
19329;SDS011;9799;48.214;16.388;2022-10-16T01:03:55;38.30;;;32.50;;
19329;SDS011;9799;48.214;16.388;2022-10-16T01:07:19;37.83;;;31.80;;
19329;SDS011;9799;48.214;16.388;2022-10-16T01:10:48;44.07;;;32.10;;
19329;SDS011;9799;48.214;16.388;2022-10-16T01:14:20;37.87;;;32.13;;
19329;SDS011;9799;48.214;16.388;2022-10-16T01:17:45;36.30;;;30.30;;
19329;SDS011;9799;48.214;16.388;2022-10-16T01:21:14;37.80;;;32.17;;
19329;SDS011;9799;48.214;16.388;2022-10-16T01:24:39;35.53;;;30.67;;
19329;SDS011;9799;48.214;16.388;2022-10-16T01:28:03;39.23;;;30.87;;
19329;SDS011;9799;48.214;16.388;2022-10-16T01:31:29;38.57;;;31.50;;
19329;SDS011;9799;48.214;16.388;2022-10-16T01:34:55;40.60;;;32.93;;
19329;SDS011;9799;48.214;16.388;2022-10-16T01:38:23;42.03;;;33.60;;
19329;SDS011;9799;48.214;16.388;2022-10-16T01:41:51;43.30;;;33.07;;
19329;SDS011;9799;48.214;16.388;2022-10-16T01:45:20;44.50;;;33.30;;
19329;SDS011;9799;48.214;16.388;2022-10-16T01:48:42;47.70;;;35.83;;
19329;SDS011;9799;48.214;16.388;2022-10-16T01:52:04;44.07;;;34.07;;
19329;SDS011;9799;48.214;16.388;2022-10-16T01:55:28;45.70;;;35.73;;
19329;SDS011;9799;48.214;16.388;2022-10-16T01:58:53;42.07;;;31.77;;
19329;SDS011;9799;48.214;16.388;2022-10-16T02:02:17;42.30;;;34.30;;
19329;SDS011;9799;48.214;16.388;2022-10-16T02:05:41;46.43;;;32.77;;
19329;SDS011;9799;48.214;16.388;2022-10-16T02:09:06;39.80;;;32.70;;
19329;SDS011;9799;48.214;16.388;2022-10-16T02:12:28;40.07;;;32.53;;
19329;SDS011;9799;48.214;16.388;2022-10-16T02:15:51;41.27;;;31.77;;
19329;SDS011;9799;48.214;16.388;2022-10-16T02:19:14;39.03;;;31.83;;
19329;SDS011;9799;48.214;16.388;2022-10-16T02:22:38;39.77;;;31.17;;
19329;SDS011;9799;48.214;16.388;2022-10-16T02:26:03;43.60;;;32.83;;
19329;SDS011;9799;48.214;16.388;2022-10-16T02:29:28;43.70;;;33.73;;
19329;SDS011;9799;48.214;16.388;2022-10-16T02:32:50;42.53;;;32.27;;
19329;SDS011;9799;48.214;16.388;2022-10-16T02:36:14;49.03;;;32.47;;
19329;SDS011;9799;48.214;16.388;2022-10-16T02:39:36;42.10;;;33.53;;
19329;SDS011;9799;48.214;16.388;2022-10-16T02:42:59;40.50;;;34.10;;
19329;SDS011;9799;48.214;16.388;2022-10-16T02:46:20;41.07;;;32.93;;
19329;SDS011;9799;48.214;16.388;2022-10-16T02:49:41;44.27;;;34.50;;
19329;SDS011;9799;48.214;16.388;2022-10-16T02:53:04;39.70;;;32.47;;
19329;SDS011;9799;48.214;16.388;2022-10-16T02:56:25;38.17;;;32.30;;
19329;SDS011;9799;48.214;16.388;2022-10-16T02:59:46;35.17;;;30.33;;
19329;SDS011;9799;48.214;16.388;2022-10-16T03:03:07;36.03;;;30.47;;
19329;SDS011;9799;48.214;16.388;2022-10-16T03:06:29;36.67;;;30.53;;
19329;SDS011;9799;48.214;16.388;2022-10-16T03:09:51;35.07;;;30.00;;
19329;SDS011;9799;48.214;16.388;2022-10-16T03:13:13;40.10;;;32.73;;
19329;SDS011;9799;48.214;16.388;2022-10-16T03:16:35;38.60;;;31.17;;
19329;SDS011;9799;48.214;16.388;2022-10-16T03:19:56;43.37;;;33.03;;
19329;SDS011;9799;48.214;16.388;2022-10-16T03:23:17;45.03;;;33.43;;
19329;SDS011;9799;48.214;16.388;2022-10-16T03:26:39;37.70;;;32.70;;
19329;SDS011;9799;48.214;16.388;2022-10-16T03:30:01;41.07;;;32.23;;
19329;SDS011;9799;48.214;16.388;2022-10-16T03:33:22;39.17;;;31.50;;
19329;SDS011;9799;48.214;16.388;2022-10-16T03:36:43;35.23;;;29.77;;
19329;SDS011;9799;48.214;16.388;2022-10-16T03:40:05;37.70;;;30.80;;
19329;SDS011;9799;48.214;16.388;2022-10-16T03:43:28;36.87;;;31.23;;
19329;SDS011;9799;48.214;16.388;2022-10-16T03:46:49;37.67;;;32.17;;
19329;SDS011;9799;48.214;16.388;2022-10-16T03:50:10;43.07;;;30.57;;
19329;SDS011;9799;48.214;16.388;2022-10-16T03:53:32;41.53;;;31.37;;
19329;SDS011;9799;48.214;16.388;2022-10-16T03:56:53;37.90;;;30.67;;
19329;SDS011;9799;48.214;16.388;2022-10-16T04:00:15;38.93;;;30.13;;
19329;SDS011;9799;48.214;16.388;2022-10-16T04:03:36;36.47;;;30.83;;
19329;SDS011;9799;48.214;16.388;2022-10-16T04:06:58;35.33;;;31.20;;
19329;SDS011;9799;48.214;16.388;2022-10-16T04:10:19;37.27;;;31.07;;
19329;SDS011;9799;48.214;16.388;2022-10-16T04:13:40;34.13;;;29.83;;
19329;SDS011;9799;48.214;16.388;2022-10-16T04:17:03;38.30;;;30.30;;
19329;SDS011;9799;48.214;16.388;2022-10-16T04:20:24;33.90;;;28.33;;
19329;SDS011;9799;48.214;16.388;2022-10-16T04:23:45;36.17;;;29.50;;
19329;SDS011;9799;48.214;16.388;2022-10-16T04:27:06;35.93;;;29.07;;
19329;SDS011;9799;48.214;16.388;2022-10-16T04:30:27;32.40;;;26.83;;
19329;SDS011;9799;48.214;16.388;2022-10-16T04:33:50;34.57;;;28.33;;
19329;SDS011;9799;48.214;16.388;2022-10-16T04:37:11;33.40;;;27.43;;
19329;SDS011;9799;48.214;16.388;2022-10-16T04:40:32;32.67;;;27.20;;
19329;SDS011;9799;48.214;16.388;2022-10-16T04:43:55;32.03;;;27.57;;
19329;SDS011;9799;48.214;16.388;2022-10-16T04:47:16;33.23;;;29.23;;
19329;SDS011;9799;48.214;16.388;2022-10-16T04:50:39;38.93;;;31.67;;
19329;SDS011;9799;48.214;16.388;2022-10-16T04:54:00;33.40;;;27.53;;
19329;SDS011;9799;48.214;16.388;2022-10-16T04:57:21;33.97;;;27.03;;
19329;SDS011;9799;48.214;16.388;2022-10-16T05:00:43;30.37;;;26.50;;
19329;SDS011;9799;48.214;16.388;2022-10-16T05:04:05;31.90;;;26.20;;
19329;SDS011;9799;48.214;16.388;2022-10-16T05:07:27;29.17;;;25.17;;
19329;SDS011;9799;48.214;16.388;2022-10-16T05:10:49;32.13;;;26.17;;
19329;SDS011;9799;48.214;16.388;2022-10-16T05:14:10;26.73;;;23.70;;
19329;SDS011;9799;48.214;16.388;2022-10-16T05:17:31;28.97;;;24.67;;
19329;SDS011;9799;48.214;16.388;2022-10-16T05:20:52;30.47;;;25.10;;
19329;SDS011;9799;48.214;16.388;2022-10-16T05:24:15;28.57;;;24.37;;
19329;SDS011;9799;48.214;16.388;2022-10-16T05:27:36;31.03;;;23.67;;
19329;SDS011;9799;48.214;16.388;2022-10-16T05:30:57;28.27;;;23.93;;
19329;SDS011;9799;48.214;16.388;2022-10-16T05:34:19;30.37;;;24.00;;
19329;SDS011;9799;48.214;16.388;2022-10-16T05:37:40;34.97;;;27.90;;
19329;SDS011;9799;48.214;16.388;2022-10-16T05:41:04;35.40;;;27.40;;
19329;SDS011;9799;48.214;16.388;2022-10-16T05:44:25;37.37;;;28.13;;
19329;SDS011;9799;48.214;16.388;2022-10-16T05:47:46;40.13;;;29.70;;
19329;SDS011;9799;48.214;16.388;2022-10-16T05:51:09;45.37;;;31.90;;
19329;SDS011;9799;48.214;16.388;2022-10-16T05:54:31;44.83;;;32.50;;
19329;SDS011;9799;48.214;16.388;2022-10-16T05:57:55;46.97;;;33.17;;
19329;SDS011;9799;48.214;16.388;2022-10-16T06:01:16;54.60;;;34.97;;
19329;SDS011;9799;48.214;16.388;2022-10-16T06:04:39;54.80;;;35.63;;
19329;SDS011;9799;48.214;16.388;2022-10-16T06:08:01;58.87;;;36.03;;
19329;SDS011;9799;48.214;16.388;2022-10-16T06:11:22;59.73;;;36.10;;
19329;SDS011;9799;48.214;16.388;2022-10-16T06:14:47;60.20;;;36.70;;
19329;SDS011;9799;48.214;16.388;2022-10-16T06:18:08;57.87;;;36.87;;
19329;SDS011;9799;48.214;16.388;2022-10-16T06:21:30;60.53;;;37.57;;
19329;SDS011;9799;48.214;16.388;2022-10-16T06:24:51;64.70;;;40.00;;
19329;SDS011;9799;48.214;16.388;2022-10-16T06:28:13;65.30;;;38.50;;
19329;SDS011;9799;48.214;16.388;2022-10-16T06:31:35;60.37;;;38.07;;
19329;SDS011;9799;48.214;16.388;2022-10-16T06:34:57;58.53;;;37.87;;
19329;SDS011;9799;48.214;16.388;2022-10-16T06:38:18;58.70;;;36.93;;
19329;SDS011;9799;48.214;16.388;2022-10-16T06:41:39;57.93;;;35.93;;
19329;SDS011;9799;48.214;16.388;2022-10-16T06:45:00;51.07;;;34.27;;
19329;SDS011;9799;48.214;16.388;2022-10-16T06:48:23;53.77;;;35.93;;
19329;SDS011;9799;48.214;16.388;2022-10-16T06:51:45;50.87;;;36.07;;
19329;SDS011;9799;48.214;16.388;2022-10-16T06:55:07;53.13;;;36.27;;
19329;SDS011;9799;48.214;16.388;2022-10-16T06:58:28;57.40;;;37.23;;
19329;SDS011;9799;48.214;16.388;2022-10-16T07:01:50;50.70;;;35.87;;
19329;SDS011;9799;48.214;16.388;2022-10-16T07:05:12;50.13;;;36.67;;
19329;SDS011;9799;48.214;16.388;2022-10-16T07:08:34;53.90;;;37.93;;
19329;SDS011;9799;48.214;16.388;2022-10-16T07:11:56;53.23;;;37.93;;
19329;SDS011;9799;48.214;16.388;2022-10-16T07:15:17;51.23;;;37.87;;
19329;SDS011;9799;48.214;16.388;2022-10-16T07:18:38;52.57;;;38.57;;
19329;SDS011;9799;48.214;16.388;2022-10-16T07:22:03;54.97;;;37.77;;
19329;SDS011;9799;48.214;16.388;2022-10-16T07:25:24;58.83;;;41.20;;
19329;SDS011;9799;48.214;16.388;2022-10-16T07:28:45;57.23;;;40.57;;
19329;SDS011;9799;48.214;16.388;2022-10-16T07:32:06;61.97;;;41.77;;
19329;SDS011;9799;48.214;16.388;2022-10-16T07:35:27;59.43;;;39.80;;
19329;SDS011;9799;48.214;16.388;2022-10-16T07:38:50;62.40;;;41.17;;
19329;SDS011;9799;48.214;16.388;2022-10-16T07:42:11;58.87;;;40.57;;
19329;SDS011;9799;48.214;16.388;2022-10-16T07:45:32;57.93;;;40.23;;
19329;SDS011;9799;48.214;16.388;2022-10-16T07:48:53;56.47;;;40.83;;
19329;SDS011;9799;48.214;16.388;2022-10-16T07:52:15;63.93;;;43.17;;
19329;SDS011;9799;48.214;16.388;2022-10-16T07:55:37;65.03;;;45.17;;
19329;SDS011;9799;48.214;16.388;2022-10-16T07:58:59;60.67;;;43.23;;
19329;SDS011;9799;48.214;16.388;2022-10-16T08:02:20;65.27;;;45.47;;
19329;SDS011;9799;48.214;16.388;2022-10-16T08:05:41;58.60;;;41.13;;
19329;SDS011;9799;48.214;16.388;2022-10-16T08:09:03;54.83;;;40.10;;
19329;SDS011;9799;48.214;16.388;2022-10-16T08:12:25;58.73;;;42.13;;
19329;SDS011;9799;48.214;16.388;2022-10-16T08:15:46;63.67;;;41.80;;
19329;SDS011;9799;48.214;16.388;2022-10-16T08:19:08;60.97;;;40.90;;
19329;SDS011;9799;48.214;16.388;2022-10-16T08:22:29;59.77;;;47.10;;
19329;SDS011;9799;48.214;16.388;2022-10-16T08:25:50;59.37;;;43.40;;
19329;SDS011;9799;48.214;16.388;2022-10-16T08:29:14;59.07;;;42.50;;
19329;SDS011;9799;48.214;16.388;2022-10-16T08:32:35;56.87;;;41.87;;
19329;SDS011;9799;48.214;16.388;2022-10-16T08:35:56;57.63;;;40.57;;
19329;SDS011;9799;48.214;16.388;2022-10-16T08:39:17;55.23;;;40.67;;
19329;SDS011;9799;48.214;16.388;2022-10-16T08:42:45;53.27;;;39.83;;
19329;SDS011;9799;48.214;16.388;2022-10-16T08:46:24;56.60;;;40.20;;
19329;SDS011;9799;48.214;16.388;2022-10-16T08:49:57;54.90;;;40.23;;
19329;SDS011;9799;48.214;16.388;2022-10-16T08:53:22;56.43;;;41.33;;
19329;SDS011;9799;48.214;16.388;2022-10-16T08:56:46;50.23;;;38.57;;
19329;SDS011;9799;48.214;16.388;2022-10-16T09:00:12;49.87;;;34.90;;
19329;SDS011;9799;48.214;16.388;2022-10-16T09:03:47;47.97;;;35.37;;
19329;SDS011;9799;48.214;16.388;2022-10-16T09:07:18;48.60;;;35.87;;
19329;SDS011;9799;48.214;16.388;2022-10-16T09:10:44;48.33;;;34.93;;
19329;SDS011;9799;48.214;16.388;2022-10-16T09:14:18;47.03;;;36.33;;
19329;SDS011;9799;48.214;16.388;2022-10-16T09:18:09;47.83;;;36.73;;
19329;SDS011;9799;48.214;16.388;2022-10-16T09:21:37;45.47;;;35.10;;
19329;SDS011;9799;48.214;16.388;2022-10-16T09:25:05;44.37;;;33.37;;
19329;SDS011;9799;48.214;16.388;2022-10-16T09:28:31;46.53;;;36.03;;
19329;SDS011;9799;48.214;16.388;2022-10-16T09:31:53;44.30;;;34.50;;
19329;SDS011;9799;48.214;16.388;2022-10-16T09:35:18;42.83;;;34.20;;
19329;SDS011;9799;48.214;16.388;2022-10-16T09:38:43;48.60;;;35.27;;
19329;SDS011;9799;48.214;16.388;2022-10-16T09:42:04;56.47;;;39.23;;
19329;SDS011;9799;48.214;16.388;2022-10-16T09:45:26;63.33;;;43.07;;
19329;SDS011;9799;48.214;16.388;2022-10-16T09:48:47;56.10;;;39.37;;
19329;SDS011;9799;48.214;16.388;2022-10-16T09:52:11;45.23;;;35.83;;
19329;SDS011;9799;48.214;16.388;2022-10-16T09:55:34;48.00;;;36.93;;
19329;SDS011;9799;48.214;16.388;2022-10-16T09:58:56;53.73;;;39.17;;
19329;SDS011;9799;48.214;16.388;2022-10-16T10:02:19;51.13;;;38.37;;
19329;SDS011;9799;48.214;16.388;2022-10-16T10:05:48;49.33;;;38.30;;
19329;SDS011;9799;48.214;16.388;2022-10-16T10:09:17;48.97;;;38.53;;
19329;SDS011;9799;48.214;16.388;2022-10-16T10:12:42;49.53;;;37.43;;
19329;SDS011;9799;48.214;16.388;2022-10-16T10:16:05;51.53;;;40.13;;
19329;SDS011;9799;48.214;16.388;2022-10-16T10:19:27;54.47;;;39.87;;
19329;SDS011;9799;48.214;16.388;2022-10-16T10:22:48;52.43;;;40.33;;
19329;SDS011;9799;48.214;16.388;2022-10-16T10:26:11;54.03;;;37.97;;
19329;SDS011;9799;48.214;16.388;2022-10-16T10:29:41;53.17;;;40.53;;
19329;SDS011;9799;48.214;16.388;2022-10-16T10:33:12;51.13;;;38.93;;
19329;SDS011;9799;48.214;16.388;2022-10-16T10:36:41;49.87;;;38.50;;
19329;SDS011;9799;48.214;16.388;2022-10-16T10:40:07;57.07;;;42.83;;
19329;SDS011;9799;48.214;16.388;2022-10-16T10:43:39;53.83;;;41.10;;
19329;SDS011;9799;48.214;16.388;2022-10-16T10:47:13;60.30;;;43.23;;
19329;SDS011;9799;48.214;16.388;2022-10-16T10:50:45;55.70;;;42.23;;
19329;SDS011;9799;48.214;16.388;2022-10-16T10:54:12;54.90;;;41.00;;
19329;SDS011;9799;48.214;16.388;2022-10-16T10:57:40;51.50;;;39.97;;
19329;SDS011;9799;48.214;16.388;2022-10-16T11:01:13;51.17;;;38.43;;
19329;SDS011;9799;48.214;16.388;2022-10-16T11:04:42;51.60;;;40.30;;
19329;SDS011;9799;48.214;16.388;2022-10-16T11:08:16;48.50;;;37.97;;
19329;SDS011;9799;48.214;16.388;2022-10-16T11:11:41;45.67;;;37.50;;
19329;SDS011;9799;48.214;16.388;2022-10-16T11:15:07;45.77;;;36.53;;
19329;SDS011;9799;48.214;16.388;2022-10-16T11:18:38;45.80;;;37.23;;
19329;SDS011;9799;48.214;16.388;2022-10-16T11:22:09;50.23;;;38.87;;
19329;SDS011;9799;48.214;16.388;2022-10-16T11:25:35;46.03;;;38.10;;
19329;SDS011;9799;48.214;16.388;2022-10-16T11:28:57;41.90;;;35.13;;
19329;SDS011;9799;48.214;16.388;2022-10-16T11:32:20;46.33;;;38.10;;
19329;SDS011;9799;48.214;16.388;2022-10-16T11:35:47;49.77;;;37.97;;
19329;SDS011;9799;48.214;16.388;2022-10-16T11:39:19;49.23;;;37.67;;
19329;SDS011;9799;48.214;16.388;2022-10-16T11:42:43;45.13;;;37.43;;
19329;SDS011;9799;48.214;16.388;2022-10-16T11:46:09;48.97;;;38.13;;
19329;SDS011;9799;48.214;16.388;2022-10-16T11:49:36;49.03;;;39.33;;
19329;SDS011;9799;48.214;16.388;2022-10-16T11:53:01;47.67;;;37.83;;
19329;SDS011;9799;48.214;16.388;2022-10-16T11:56:31;56.50;;;38.77;;
19329;SDS011;9799;48.214;16.388;2022-10-16T11:59:57;46.70;;;38.40;;
19329;SDS011;9799;48.214;16.388;2022-10-16T12:03:22;47.97;;;37.50;;
19329;SDS011;9799;48.214;16.388;2022-10-16T12:06:50;47.37;;;39.30;;
19329;SDS011;9799;48.214;16.388;2022-10-16T12:10:20;45.37;;;38.30;;
19329;SDS011;9799;48.214;16.388;2022-10-16T12:13:45;48.03;;;38.27;;
19329;SDS011;9799;48.214;16.388;2022-10-16T12:17:24;53.43;;;39.70;;
19329;SDS011;9799;48.214;16.388;2022-10-16T12:20:53;61.60;;;49.40;;
19329;SDS011;9799;48.214;16.388;2022-10-16T12:24:22;45.33;;;37.80;;
19329;SDS011;9799;48.214;16.388;2022-10-16T12:27:55;45.90;;;37.93;;
19329;SDS011;9799;48.214;16.388;2022-10-16T12:31:22;43.30;;;37.27;;
19329;SDS011;9799;48.214;16.388;2022-10-16T12:34:43;49.87;;;38.80;;
19329;SDS011;9799;48.214;16.388;2022-10-16T12:38:13;44.03;;;36.50;;
19329;SDS011;9799;48.214;16.388;2022-10-16T12:41:37;49.50;;;37.73;;
19329;SDS011;9799;48.214;16.388;2022-10-16T12:44:59;46.33;;;37.40;;
19329;SDS011;9799;48.214;16.388;2022-10-16T12:48:23;50.23;;;42.00;;
19329;SDS011;9799;48.214;16.388;2022-10-16T12:51:44;49.43;;;38.93;;
19329;SDS011;9799;48.214;16.388;2022-10-16T12:55:09;50.33;;;42.00;;
19329;SDS011;9799;48.214;16.388;2022-10-16T12:58:44;51.07;;;40.57;;
19329;SDS011;9799;48.214;16.388;2022-10-16T13:02:21;51.97;;;41.20;;
19329;SDS011;9799;48.214;16.388;2022-10-16T13:06:06;49.47;;;40.57;;
19329;SDS011;9799;48.214;16.388;2022-10-16T13:09:39;54.37;;;42.60;;
19329;SDS011;9799;48.214;16.388;2022-10-16T13:13:18;52.10;;;42.17;;
19329;SDS011;9799;48.214;16.388;2022-10-16T13:16:53;51.53;;;40.53;;
19329;SDS011;9799;48.214;16.388;2022-10-16T13:20:22;48.50;;;41.03;;
19329;SDS011;9799;48.214;16.388;2022-10-16T13:23:53;54.72;;;40.70;;
19329;SDS011;9799;48.214;16.388;2022-10-16T13:27:23;48.28;;;40.75;;
19329;SDS011;9799;48.214;16.388;2022-10-16T13:30:52;53.65;;;41.38;;
19329;SDS011;9799;48.214;16.388;2022-10-16T13:34:15;57.03;;;41.13;;
19329;SDS011;9799;48.214;16.388;2022-10-16T13:37:39;49.77;;;39.90;;
19329;SDS011;9799;48.214;16.388;2022-10-16T13:41:02;50.17;;;41.88;;
19329;SDS011;9799;48.214;16.388;2022-10-16T13:44:25;50.10;;;38.87;;
19329;SDS011;9799;48.214;16.388;2022-10-16T13:47:47;51.35;;;40.15;;
19329;SDS011;9799;48.214;16.388;2022-10-16T13:51:11;49.60;;;41.17;;
19329;SDS011;9799;48.214;16.388;2022-10-16T13:54:33;49.70;;;40.03;;
19329;SDS011;9799;48.214;16.388;2022-10-16T13:58:05;49.13;;;39.03;;
19329;SDS011;9799;48.214;16.388;2022-10-16T14:01:28;47.38;;;36.75;;
19329;SDS011;9799;48.214;16.388;2022-10-16T14:04:52;44.78;;;36.22;;
19329;SDS011;9799;48.214;16.388;2022-10-16T14:08:14;45.17;;;38.00;;
19329;SDS011;9799;48.214;16.388;2022-10-16T14:11:37;48.80;;;39.72;;
19329;SDS011;9799;48.214;16.388;2022-10-16T14:15:15;45.03;;;37.00;;
19329;SDS011;9799;48.214;16.388;2022-10-16T14:18:38;46.20;;;37.35;;
19329;SDS011;9799;48.214;16.388;2022-10-16T14:22:00;47.83;;;36.40;;
19329;SDS011;9799;48.214;16.388;2022-10-16T14:25:23;40.58;;;34.08;;
19329;SDS011;9799;48.214;16.388;2022-10-16T14:28:47;44.25;;;35.88;;
19329;SDS011;9799;48.214;16.388;2022-10-16T14:32:22;39.60;;;34.53;;
19329;SDS011;9799;48.214;16.388;2022-10-16T14:35:44;41.20;;;33.63;;
19329;SDS011;9799;48.214;16.388;2022-10-16T14:39:13;44.38;;;33.72;;
19329;SDS011;9799;48.214;16.388;2022-10-16T14:42:38;40.67;;;32.95;;
19329;SDS011;9799;48.214;16.388;2022-10-16T14:46:06;35.72;;;31.63;;
19329;SDS011;9799;48.214;16.388;2022-10-16T14:49:34;35.50;;;31.42;;
19329;SDS011;9799;48.214;16.388;2022-10-16T14:52:55;36.70;;;31.98;;
19329;SDS011;9799;48.214;16.388;2022-10-16T14:56:17;38.47;;;31.92;;
19329;SDS011;9799;48.214;16.388;2022-10-16T14:59:40;34.42;;;30.13;;
19329;SDS011;9799;48.214;16.388;2022-10-16T15:03:03;34.45;;;29.65;;
19329;SDS011;9799;48.214;16.388;2022-10-16T15:06:26;36.78;;;29.98;;
19329;SDS011;9799;48.214;16.388;2022-10-16T15:09:47;36.20;;;30.92;;
19329;SDS011;9799;48.214;16.388;2022-10-16T15:13:09;39.75;;;31.38;;
19329;SDS011;9799;48.214;16.388;2022-10-16T15:16:32;39.17;;;30.52;;
19329;SDS011;9799;48.214;16.388;2022-10-16T15:19:54;34.90;;;29.23;;
19329;SDS011;9799;48.214;16.388;2022-10-16T15:23:17;36.55;;;31.27;;
19329;SDS011;9799;48.214;16.388;2022-10-16T15:26:40;39.38;;;30.38;;
19329;SDS011;9799;48.214;16.388;2022-10-16T15:30:02;37.75;;;32.15;;
19329;SDS011;9799;48.214;16.388;2022-10-16T15:33:24;37.65;;;31.60;;
19329;SDS011;9799;48.214;16.388;2022-10-16T15:36:51;40.22;;;31.63;;
19329;SDS011;9799;48.214;16.388;2022-10-16T15:40:16;37.25;;;32.25;;
19329;SDS011;9799;48.214;16.388;2022-10-16T15:43:38;39.20;;;31.67;;
19329;SDS011;9799;48.214;16.388;2022-10-16T15:47:00;38.85;;;32.08;;
19329;SDS011;9799;48.214;16.388;2022-10-16T15:50:28;39.28;;;33.17;;
19329;SDS011;9799;48.214;16.388;2022-10-16T15:53:50;44.40;;;33.53;;
19329;SDS011;9799;48.214;16.388;2022-10-16T15:57:12;40.95;;;33.53;;
19329;SDS011;9799;48.214;16.388;2022-10-16T16:00:33;42.08;;;33.92;;
19329;SDS011;9799;48.214;16.388;2022-10-16T16:03:54;34.97;;;30.13;;
19329;SDS011;9799;48.214;16.388;2022-10-16T16:07:18;35.35;;;30.75;;
19329;SDS011;9799;48.214;16.388;2022-10-16T16:10:39;36.13;;;30.23;;
19329;SDS011;9799;48.214;16.388;2022-10-16T16:14:01;38.67;;;29.92;;
19329;SDS011;9799;48.214;16.388;2022-10-16T16:17:22;34.20;;;30.38;;
19329;SDS011;9799;48.214;16.388;2022-10-16T16:20:44;35.03;;;30.25;;
19329;SDS011;9799;48.214;16.388;2022-10-16T16:24:06;37.55;;;30.75;;
19329;SDS011;9799;48.214;16.388;2022-10-16T16:27:28;37.03;;;31.48;;
19329;SDS011;9799;48.214;16.388;2022-10-16T16:30:52;37.35;;;31.50;;
19329;SDS011;9799;48.214;16.388;2022-10-16T16:34:14;36.78;;;30.65;;
19329;SDS011;9799;48.214;16.388;2022-10-16T16:37:35;38.03;;;29.40;;
19329;SDS011;9799;48.214;16.388;2022-10-16T16:40:58;34.75;;;28.48;;
19329;SDS011;9799;48.214;16.388;2022-10-16T16:44:19;38.20;;;30.90;;
19329;SDS011;9799;48.214;16.388;2022-10-16T16:47:41;34.75;;;30.42;;
19329;SDS011;9799;48.214;16.388;2022-10-16T16:51:03;37.75;;;30.92;;
19329;SDS011;9799;48.214;16.388;2022-10-16T16:54:25;35.13;;;29.75;;
19329;SDS011;9799;48.214;16.388;2022-10-16T16:57:49;34.28;;;30.02;;
19329;SDS011;9799;48.214;16.388;2022-10-16T17:01:11;35.78;;;31.52;;
19329;SDS011;9799;48.214;16.388;2022-10-16T17:04:33;37.88;;;31.67;;
19329;SDS011;9799;48.214;16.388;2022-10-16T17:07:55;37.97;;;32.23;;
19329;SDS011;9799;48.214;16.388;2022-10-16T17:11:18;45.03;;;31.30;;
19329;SDS011;9799;48.214;16.388;2022-10-16T17:14:44;34.77;;;29.70;;
19329;SDS011;9799;48.214;16.388;2022-10-16T17:18:06;35.42;;;30.95;;
19329;SDS011;9799;48.214;16.388;2022-10-16T17:21:29;37.70;;;29.35;;
19329;SDS011;9799;48.214;16.388;2022-10-16T17:24:51;34.83;;;29.60;;
19329;SDS011;9799;48.214;16.388;2022-10-16T17:28:14;40.80;;;30.85;;
19329;SDS011;9799;48.214;16.388;2022-10-16T17:31:37;35.88;;;28.40;;
19329;SDS011;9799;48.214;16.388;2022-10-16T17:35:01;37.80;;;30.95;;
19329;SDS011;9799;48.214;16.388;2022-10-16T17:38:23;37.87;;;30.17;;
19329;SDS011;9799;48.214;16.388;2022-10-16T17:41:45;40.30;;;32.05;;
19329;SDS011;9799;48.214;16.388;2022-10-16T17:45:08;39.70;;;31.63;;
19329;SDS011;9799;48.214;16.388;2022-10-16T17:48:35;44.75;;;34.28;;
19329;SDS011;9799;48.214;16.388;2022-10-16T17:51:57;38.47;;;31.20;;
19329;SDS011;9799;48.214;16.388;2022-10-16T17:55:21;41.92;;;31.83;;
19329;SDS011;9799;48.214;16.388;2022-10-16T17:58:46;43.10;;;29.83;;
19329;SDS011;9799;48.214;16.388;2022-10-16T18:02:09;35.72;;;30.10;;
19329;SDS011;9799;48.214;16.388;2022-10-16T18:05:33;36.27;;;29.13;;
19329;SDS011;9799;48.214;16.388;2022-10-16T18:08:58;36.50;;;31.13;;
19329;SDS011;9799;48.214;16.388;2022-10-16T18:12:23;40.47;;;32.83;;
19329;SDS011;9799;48.214;16.388;2022-10-16T18:15:57;39.75;;;31.52;;
19329;SDS011;9799;48.214;16.388;2022-10-16T18:19:20;40.07;;;31.77;;
19329;SDS011;9799;48.214;16.388;2022-10-16T18:22:43;37.07;;;30.47;;
19329;SDS011;9799;48.214;16.388;2022-10-16T18:26:05;41.20;;;31.57;;
19329;SDS011;9799;48.214;16.388;2022-10-16T18:29:29;39.97;;;32.17;;
19329;SDS011;9799;48.214;16.388;2022-10-16T18:32:53;41.40;;;32.83;;
19329;SDS011;9799;48.214;16.388;2022-10-16T18:36:18;40.97;;;32.63;;
19329;SDS011;9799;48.214;16.388;2022-10-16T18:39:47;34.03;;;30.05;;
19329;SDS011;9799;48.214;16.388;2022-10-16T18:43:09;38.00;;;30.23;;
19329;SDS011;9799;48.214;16.388;2022-10-16T18:46:31;42.30;;;32.28;;
19329;SDS011;9799;48.214;16.388;2022-10-16T18:49:54;37.83;;;30.67;;
19329;SDS011;9799;48.214;16.388;2022-10-16T18:53:16;37.33;;;30.07;;
19329;SDS011;9799;48.214;16.388;2022-10-16T18:56:40;41.80;;;30.53;;
19329;SDS011;9799;48.214;16.388;2022-10-16T19:00:04;38.95;;;30.65;;
19329;SDS011;9799;48.214;16.388;2022-10-16T19:03:28;38.45;;;31.23;;
19329;SDS011;9799;48.214;16.388;2022-10-16T19:06:51;47.03;;;31.88;;
19329;SDS011;9799;48.214;16.388;2022-10-16T19:10:14;36.17;;;29.47;;
19329;SDS011;9799;48.214;16.388;2022-10-16T19:13:38;41.03;;;31.73;;
19329;SDS011;9799;48.214;16.388;2022-10-16T19:17:01;37.80;;;30.40;;
19329;SDS011;9799;48.214;16.388;2022-10-16T19:20:24;40.85;;;29.73;;
19329;SDS011;9799;48.214;16.388;2022-10-16T19:23:49;38.70;;;30.27;;
19329;SDS011;9799;48.214;16.388;2022-10-16T19:27:12;39.58;;;31.00;;
19329;SDS011;9799;48.214;16.388;2022-10-16T19:30:36;39.83;;;31.07;;
19329;SDS011;9799;48.214;16.388;2022-10-16T19:33:59;37.92;;;30.90;;
19329;SDS011;9799;48.214;16.388;2022-10-16T19:37:22;39.00;;;30.13;;
19329;SDS011;9799;48.214;16.388;2022-10-16T19:40:45;37.80;;;31.90;;
19329;SDS011;9799;48.214;16.388;2022-10-16T19:44:07;38.27;;;31.10;;
19329;SDS011;9799;48.214;16.388;2022-10-16T19:47:33;38.53;;;32.27;;
19329;SDS011;9799;48.214;16.388;2022-10-16T19:50:54;45.27;;;30.83;;
19329;SDS011;9799;48.214;16.388;2022-10-16T19:54:16;36.87;;;30.63;;